ENTC Airport Information

Runway Information
Runway 01 Length 7848 ft width 148 ft
Elevation 25 ft Threshold 0 ft Heading 13
Runway 19 Length 7848 ft Width 148 ft
Elevation 13 ft Threshold 1286 ft Heading 193
Airport Frequencies
Type APP Name APP Frequency 123.75 MHZ
Type ATIS Name ATIS Frequency 126.125 MHZ
Type TWR Name TWR Frequency 118.3 MHZ
Airport Navaids
Type NDB Name Kobbe Frequency 283 KHZ
Type NDB Name Kvalsund Frequency 362 KHZ
Type NDB Name Lanes Frequency 268 KHZ
Type VOR-DME Name Tromso Frequency 113800 KHZ
Airport Weather Information & NOTAM
ADDS - METARS form results

(1315 UTC 25 October 2021)
Data provider http://aviationweather.gov/metar/data/
 
METAR text: ENTC 251250Z 26006KT 9999 FEW015 BKN034 01/M02 Q1003 NOSIG RMK WIND 2600FT 15006KT
Conditions at: ENTC (TROMSO/LANGNES , NO) observed 1250 UTC 25 October 2021
Temperature: 1.0°C (34°F)
Dewpoint: -2.0°C (28°F) [RH = 80%]
Pressure (altimeter): 29.62 inches Hg (1003.0 mb)
Winds: from the W (260 degrees) at 7 MPH (6 knots; 3.1 m/s)
Visibility: 6 or more miles (10+ km)
Ceiling: 3400 feet AGL
Clouds: few clouds at 1500 feet AGL
broken clouds at 3400 feet AGL
Weather: no significant weather observed at this time

METAR text: ENTC 251220Z 23008KT 9999 SCT015 BKN035 01/M02 Q1003 NOSIG RMK WIND 2600FT 14005KT
Conditions at: ENTC (TROMSO/LANGNES , NO) observed 1220 UTC 25 October 2021
Temperature: 1.0°C (34°F)
Dewpoint: -2.0°C (28°F) [RH = 80%]
Pressure (altimeter): 29.62 inches Hg (1003.0 mb)
Winds: from the SW (230 degrees) at 9 MPH (8 knots; 4.1 m/s)
Visibility: 6 or more miles (10+ km)
Ceiling: 3500 feet AGL
Clouds: scattered clouds at 1500 feet AGL
broken clouds at 3500 feet AGL
Weather: no significant weather observed at this time

Forecast for: ENTC (TROMSO/LANGNES , NO)
Text: TAF ENTC 2512/2612 02008KT 9999 FEW020 BKN050
Forecast period: 1200 UTC 25 October 2021 to 1200 UTC 26 October 2021
Forecast type: FROM: standard forecast or significant change
Winds: from the NNE (20 degrees) at 9 MPH (8 knots; 4.1 m/s)
Visibility: 6 or more miles (10+ km)
Ceiling: 5000 feet AGL
Clouds: few clouds at 2000 feet AGL
broken clouds at 5000 feet AGL
Weather: no significant weather forecast for this period